Latest Weather Observations for Territory Grape Farm

IDD60801

Issued at 3:01 pm CST Sunday 20 August 2017 (issued every 30 minutes, with the page automatically refreshed every 10 minutes)

About weather observations | Map of weather stations | Latest weather observations for NT | Other Formats
Station Details ID: 015643 Name: TERRITORY GRAPE FARM Lat: -22.45 Lon: 133.64 Height: 565.6 m
Data from the previous 72 hours. | See also: Recent months at Territory Grape Farm
Date/Time
CST
Temp
°C
App
Temp
°C
Dew
Point
°C
Rel
Hum
%
Delta-T
°C
Wind Press
QNH
hPa
Press
MSL
hPa
Rain since
9am
mm
Dir  Spd
km/h
Gust
km/h
Spd
kts
Gust
kts
20/03:00pm 29.1 24.2 -3.2 12 14.9 N 13 24 7 13 1015.8 1014.5 0.0
20/02:30pm 28.4 23.1 -3.7 12 14.6 NNE 15 24 8 13 1016.4 1015.0 0.0
20/02:00pm 28.1 22.8 -3.9 12 14.5 N 15 26 8 14 1017.0 1015.7 0.0
20/01:30pm 26.6 21.3 -4.0 13 13.6 NNE 15 22 8 12 1017.6 1016.3 0.0
20/01:00pm 25.7 21.0 -4.7 13 13.3 NNE 11 20 6 11 1018.6 1017.3 0.0
20/12:30pm 24.2 19.0 -5.9 13 12.7 NNE 13 24 7 13 1019.2 1017.9 0.0
20/12:00pm 23.8 18.2 -6.2 13 12.5 NE 15 24 8 13 1019.7 1018.4 0.0
20/11:30am 23.2 17.7 -5.7 14 12.1 NE 15 22 8 12 1020.3 1019.0 0.0
20/11:00am 22.1 16.1 -6.6 14 11.7 NE 17 24 9 13 1021.0 1019.7 0.0
20/10:30am 20.9 14.9 -6.7 15 11.1 NE 17 24 9 13 1021.4 1020.1 0.0
20/10:00am 19.2 12.7 -5.7 18 10.0 ENE 20 30 11 16 1021.5 1020.2 0.0
20/09:30am 18.2 12.3 -5.8 19 9.5 ENE 17 22 9 12 1021.8 1020.6 0.0
20/09:00am 16.5 10.6 -5.3 22 8.6 ENE 17 24 9 13 1021.8 1020.6 0.0
20/08:30am 14.8 9.7 -5.5 24 7.8 ENE 13 20 7 11 1022.0 1020.7 0.0
20/08:00am 11.9 8.6 -4.7 31 6.3 ESE 4 6 2 3 1022.0 1020.7 0.0
20/07:30am 9.0 5.6 -5.6 35 5.2 S 4 4 2 2 1022.0 1020.7 0.0
20/07:00am 8.6 3.4 -6.0 35 5.2 E 13 15 7 8 1021.4 1020.1 0.0
20/06:30am 9.2 5.1 -7.0 31 5.6 ESE 7 7 4 4 1021.6 1020.4 0.0
20/06:00am 9.9 6.0 -6.4 31 5.8 SE 6 7 3 4 1021.4 1020.1 0.0
20/05:30am 10.4 6.3 -6.8 29 6.1 SSE 7 7 4 4 1021.3 1020.0 0.0
20/05:00am 10.5 6.4 -6.8 29 6.2 SE 7 7 4 4 1021.2 1019.9 0.0
20/04:30am 10.7 6.8 -7.0 28 6.3 ESE 6 6 3 3 1021.1 1019.8 0.0
20/04:00am 10.7 6.5 -7.5 27 6.4 ESE 7 7 4 4 1021.1 1019.8 0.0
20/03:30am 10.6 6.5 -6.7 29 6.2 ESE 7 7 4 4 1021.2 1019.9 0.0
20/03:00am 10.9 6.4 -6.4 29 6.2 ESE 9 9 5 5 1021.4 1020.1 0.0
20/02:30am 10.9 6.8 -6.4 29 6.2 ESE 7 7 4 4 1021.4 1020.1 0.0
20/02:00am 11.0 7.0 -5.9 30 6.2 ESE 7 9 4 5 1021.5 1020.2 0.0
20/01:30am 10.8 6.8 -5.6 31 6.0 ESE 7 7 4 4 1021.5 1020.2 0.0
20/01:00am 11.9 7.6 -4.7 31 6.3 ESE 9 9 5 5 1022.0 1020.7 0.0
20/12:30am 12.9 8.6 -4.7 29 6.8 SE 9 9 5 5 1022.0 1020.7 0.0
20/12:00am 13.4 9.6 -3.4 31 6.7 ESE 7 9 4 5 1022.2 1020.9 0.0
 
Date/Time
CST
Temp
°C
App
Temp
°C
Dew
Point
°C
Rel
Hum
%
Delta-T
°C
Wind Press
QNH
hPa
Press
MSL
hPa
Rain since
9am
mm
Dir  Spd
km/h
Gust
km/h
Spd
kts
Gust
kts
19/11:30pm 12.5 8.3 -3.7 32 6.3 ESE 9 11 5 6 1022.4 1021.1 0.0
19/11:00pm 13.0 9.3 -2.9 33 6.4 ESE 7 7 4 4 1022.4 1021.1 0.0
19/10:30pm 13.5 9.4 -3.3 31 6.7 ESE 9 11 5 6 1022.7 1021.4 0.0
19/10:00pm 15.0 10.5 -2.9 29 7.3 ESE 11 13 6 7 1022.7 1021.4 0.0
19/09:30pm 16.6 12.1 -3.5 25 8.2 ESE 11 13 6 7 1022.5 1021.2 0.0
19/09:00pm 18.3 13.5 -2.6 24 8.9 E 13 15 7 8 1022.2 1020.9 0.0
19/08:30pm 18.4 13.7 -2.0 25 8.8 E 13 17 7 9 1021.8 1020.6 0.0
19/08:00pm 18.1 13.8 -1.7 26 8.6 E 11 13 6 7 1021.5 1020.2 0.0
19/07:30pm 19.0 14.7 -1.4 25 8.9 E 11 15 6 8 1021.2 1019.9 0.0
19/07:00pm 20.2 15.9 -1.6 23 9.6 E 11 13 6 7 1020.8 1019.5 0.0
19/06:30pm 22.5 17.8 -1.6 20 10.8 E 13 19 7 10 1020.4 1019.1 0.0
19/06:00pm 24.0 18.9 -1.8 18 11.7 E 15 22 8 12 1019.9 1018.6 0.0
19/05:30pm 25.3 19.8 -2.3 16 12.5 E 17 24 9 13 1019.7 1018.4 0.0
19/05:00pm 25.9 20.1 -1.8 16 12.8 ENE 19 26 10 14 1019.6 1018.3 0.0
19/04:30pm 26.2 20.7 -2.4 15 13.1 E 17 24 9 13 1019.5 1018.2 0.0
19/04:00pm 26.2 20.3 -2.4 15 13.1 ENE 19 26 10 14 1019.7 1018.4 0.0
19/03:30pm 26.6 21.1 -2.1 15 13.2 ENE 17 26 9 14 1019.9 1018.6 0.0
19/03:00pm 26.5 20.6 -2.2 15 13.2 ENE 19 24 10 13 1020.3 1019.0 0.0
19/02:30pm 26.3 21.1 -2.4 15 13.1 ENE 15 24 8 13 1020.5 1019.2 0.0
19/02:00pm 25.6 19.6 -2.9 15 12.9 E 19 28 10 15 1021.1 1019.8 0.0
19/01:30pm 25.1 19.0 -4.2 14 12.8 ENE 19 30 10 16 1021.7 1020.5 0.0
19/01:00pm 24.2 18.8 -4.9 14 12.5 E 15 26 8 14 1022.2 1020.9 0.0
19/12:30pm 23.7 17.3 -5.3 14 12.3 E 20 32 11 17 1022.9 1021.6 0.0
19/12:00pm 23.1 16.8 -5.8 14 12.0 E 19 28 10 15 1023.6 1022.4 0.0
19/11:30am 22.1 15.2 -6.6 14 11.6 E 22 30 12 16 1024.2 1022.9 0.0
19/11:00am 21.0 14.1 -6.6 15 11.1 E 22 32 12 17 1024.7 1023.5 0.0
19/10:30am 20.7 13.8 -6.0 16 10.8 E 22 32 12 17 1025.0 1023.8 0.0
19/10:00am 19.5 12.3 -5.4 18 10.1 ESE 24 35 13 19 1025.3 1024.1 0.0
19/09:30am 17.9 9.6 -4.7 21 9.1 E 30 39 16 21 1025.4 1024.2 0.0
19/09:00am 16.5 10.4 -2.0 28 7.8 E 20 30 11 16 1025.3 1024.1 0.0
19/08:30am 14.5 9.4 -2.0 32 6.8 ESE 15 24 8 13 1025.1 1023.9 0.0
19/08:00am 12.0 8.3 -0.2 43 5.2 SE 9 11 5 6 1024.9 1023.7 0.0
19/07:30am 9.8 6.0 -0.4 49 4.2 SSE 9 11 5 6 1024.5 1023.2 0.0
19/07:00am 9.4 5.6 -0.5 50 4.0 SSE 9 11 5 6 1024.1 1022.8 0.0
19/06:30am 9.6 5.9 -0.3 50 4.1 SSE 9 11 5 6 1023.9 1022.6 0.0
19/06:00am 10.2 6.5 0.0 49 4.2 SSE 9 11 5 6 1023.5 1022.3 0.0
19/05:30am 10.4 7.1 -0.1 48 4.4 SSE 7 9 4 5 1023.3 1022.1 0.0
19/05:00am 10.8 7.5 0.2 48 4.5 SSE 7 9 4 5 1023.1 1021.9 0.0
19/04:30am 10.7 7.0 -0.1 47 4.5 SSE 9 11 5 6 1023.0 1021.7 0.0
19/04:00am 11.3 7.6 0.1 46 4.7 SSE 9 11 5 6 1022.9 1021.6 0.0
19/03:30am 11.3 8.0 0.1 46 4.7 SSE 7 9 4 5 1022.8 1021.5 0.0
19/03:00am 11.8 8.2 0.3 45 4.9 SSE 9 11 5 6 1023.1 1021.9 0.0
19/02:30am 11.5 7.9 0.3 46 4.7 SE 9 11 5 6 1023.3 1022.1 0.0
19/02:00am 12.1 8.5 0.8 46 4.9 SE 9 13 5 7 1023.4 1022.2 0.0
19/01:30am 12.0 8.0 0.5 45 4.9 SE 11 11 6 6 1023.4 1022.2 0.0
19/01:00am 13.1 9.5 0.8 43 5.4 SE 9 11 5 6 1023.4 1022.2 0.0
19/12:30am 12.6 9.3 0.4 43 5.2 SE 7 7 4 4 1023.3 1022.1 0.0
19/12:00am 13.2 10.0 0.6 42 5.5 SE 7 9 4 5 1023.4 1022.2 0.0
 
Date/Time
CST
Temp
°C
App
Temp
°C
Dew
Point
°C
Rel
Hum
%
Delta-T
°C
Wind Press
QNH
hPa
Press
MSL
hPa
Rain since
9am
mm
Dir  Spd
km/h
Gust
km/h
Spd
kts
Gust
kts
18/11:30pm 13.9 10.8 1.2 42 5.6 ESE 7 7 4 4 1023.5 1022.3 0.0
18/11:00pm 14.0 10.8 0.6 40 5.9 ESE 7 9 4 5 1023.6 1022.4 0.0
18/10:30pm 15.0 11.0 0.8 38 6.3 ESE 11 13 6 7 1023.5 1022.3 0.0
18/10:00pm 15.2 11.5 0.2 36 6.6 SE 9 11 5 6 1023.4 1022.2 0.0
18/09:30pm 17.5 13.5 0.6 32 7.6 ESE 11 13 6 7 1023.2 1022.0 0.0
18/09:00pm 17.5 13.6 1.1 33 7.5 ESE 11 13 6 7 1022.8 1021.5 0.0
18/08:30pm 19.4 15.2 1.4 30 8.4 E 13 17 7 9 1022.3 1021.0 0.0
18/08:00pm 20.0 15.8 1.9 30 8.6 E 13 17 7 9 1021.7 1020.5 0.0
18/07:30pm 20.5 16.6 1.4 28 9.0 E 11 15 6 8 1021.3 1020.0 0.0
18/07:00pm 21.5 17.7 1.7 27 9.4 E 11 15 6 8 1020.9 1019.6 0.0
18/06:30pm 23.2 18.6 1.5 24 10.4 E 15 20 8 11 1020.4 1019.1 0.0
18/06:00pm 24.5 18.9 1.4 22 11.2 E 20 28 11 15 1020.2 1018.9 0.0
18/05:30pm 25.6 20.3 1.7 21 11.7 E 19 26 10 14 1019.7 1018.4 0.0
18/05:00pm 26.2 20.6 1.5 20 12.1 E 20 33 11 18 1019.5 1018.2 0.0
18/04:30pm 26.7 21.4 1.9 20 12.3 E 19 30 10 16 1019.4 1018.1 0.0
18/04:00pm 27.3 22.1 2.4 20 12.5 ENE 19 28 10 15 1019.5 1018.2 0.0
18/03:30pm 26.9 21.4 2.1 20 12.3 E 20 30 11 16 1019.6 1018.3 0.0
18/03:00pm 27.5 22.1 2.6 20 12.5 E 20 28 11 15 1019.8 1018.5 0.0
18/02:30pm 26.7 21.2 1.9 20 12.3 ESE 20 30 11 16 1020.1 1018.8 0.0
18/02:00pm 26.6 21.2 2.5 21 12.1 E 20 33 11 18 1020.5 1019.2 0.0
18/01:30pm 25.7 20.2 1.8 21 11.7 ESE 20 30 11 16 1020.9 1019.6 0.0
18/01:00pm 25.3 19.5 2.1 22 11.4 ESE 22 37 12 20 1021.5 1020.2 0.0
18/12:30pm 25.1 19.2 1.9 22 11.3 ESE 22 32 12 17 1021.8 1020.6 0.0
18/12:00pm 24.4 18.2 1.9 23 10.9 E 24 33 13 18 1022.4 1021.1 0.0
18/11:30am 23.1 16.4 1.5 24 10.3 ESE 26 39 14 21 1022.9 1021.6 0.0
18/11:00am 22.3 16.3 0.8 24 10.1 ESE 22 32 12 17 1023.2 1022.0 0.0
18/10:30am 21.5 15.1 0.7 25 9.7 ESE 24 35 13 19 1023.3 1022.1 0.0
18/10:00am 20.7 13.9 0.5 26 9.3 ESE 26 41 14 22 1023.5 1022.3 0.0
18/09:30am 19.9 13.4 0.4 27 8.9 ESE 24 37 13 20 1023.2 1022.0 0.0
18/09:00am 18.8 12.3 0.4 29 8.3 ESE 24 37 13 20 1023.0 1021.7 0.0
18/08:30am 17.5 12.4 0.6 32 7.6 ESE 17 24 9 13 1022.6 1021.3 0.0
18/08:00am 16.3 12.5 2.0 38 6.6 ESE 11 15 6 8 1022.2 1020.9 0.0
18/07:30am 13.7 10.6 3.8 51 4.6 SE 9 13 5 7 1021.5 1020.2 0.0
18/07:00am 12.4 9.9 4.6 59 3.7 SE 7 7 4 4 1021.2 1019.9 0.0
18/06:30am 11.5 8.9 4.3 61 3.3 SE 7 7 4 4 1020.7 1019.4 0.0
18/06:00am 13.7 11.3 5.1 56 4.1 SSE 7 9 4 5 1020.2 1018.9 0.0
18/05:30am 14.4 11.9 5.0 53 4.5 SSE 7 9 4 5 1019.6 1018.3 0.0
18/05:00am 14.7 12.4 5.5 54 4.5 SE 7 9 4 5 1018.9 1017.6 0.0
18/04:30am 15.8 13.1 5.7 51 5.0 SSE 9 13 5 7 1018.6 1017.3 0.0
18/04:00am 16.4 13.4 6.2 51 5.1 SSE 11 15 6 8 1018.4 1017.0 0.0
18/03:30am 15.7 13.1 6.2 53 4.7 SSE 9 13 5 7 1018.0 1016.7 0.0
18/03:00am 15.9 12.9 6.1 52 4.9 SSE 11 13 6 7 1018.0 1016.7 0.0
18/02:30am 16.2 13.6 6.3 52 5.0 SSE 9 11 5 6 1018.2 1016.8 0.0
18/02:00am 15.8 13.2 6.3 53 4.8 SSE 9 11 5 6 1018.3 1016.9 0.0
18/01:30am 16.4 14.3 6.5 52 5.0 SSE 7 11 4 6 1018.3 1016.9 0.0
18/01:00am 17.5 14.6 6.4 48 5.6 S 11 13 6 7 1018.3 1016.9 0.0
18/12:30am 17.8 15.2 6.3 47 5.8 S 9 13 5 7 1018.2 1016.8 0.0
18/12:00am 18.3 15.8 6.5 46 6.0 S 9 13 5 7 1018.0 1016.7 0.0
 
Date/Time
CST
Temp
°C
App
Temp
°C
Dew
Point
°C
Rel
Hum
%
Delta-T
°C
Wind Press
QNH
hPa
Press
MSL
hPa
Rain since
9am
mm
Dir  Spd
km/h
Gust
km/h
Spd
kts
Gust
kts
17/11:30pm 18.6 16.0 6.1 44 6.3 S 9 11 5 6 1017.8 1016.5 0.0
17/11:00pm 19.4 16.4 5.8 41 6.9 SSE 11 13 6 7 1017.7 1016.4 0.0
17/10:30pm 20.1 17.4 5.7 39 7.3 SSE 9 11 5 6 1017.6 1016.3 0.0
17/10:00pm 21.0 18.3 5.4 36 7.9 SSE 9 13 5 7 1017.5 1016.2 0.0
17/09:30pm 22.5 18.6 5.4 33 8.8 SSE 15 22 8 12 1017.2 1015.9 0.0
17/09:00pm 19.3 16.2 3.5 35 7.7 SE 9 11 5 6 1016.6 1015.2 0.0
17/08:30pm 19.6 16.9 2.9 33 8.0 ESE 6 6 3 3 1016.5 1015.1 0.0
17/08:00pm 23.0 20.0 4.0 29 9.6 SSE 9 9 5 5 1016.0 1014.7 0.0
17/07:30pm 22.8 19.7 3.4 28 9.6 SE 9 9 5 5 1015.6 1014.3 0.0
17/07:00pm 23.7 21.1 3.1 26 10.2 SSE 6 6 3 3 1015.2 1013.8 0.0
17/06:30pm 25.6 23.4 3.6 24 11.2 SE 4 6 2 3 1014.8 1013.4 0.0
17/06:00pm 29.6 28.0 4.3 20 13.3 NW 2 4 1 2 1014.7 1013.3 0.0
17/05:30pm 31.0 29.3 3.9 18 14.3 WSW 2 4 1 2 1014.5 1013.1 0.0
17/05:00pm 31.4 28.8 3.4 17 14.7 W 6 11 3 6 1014.2 1012.9 0.0
17/04:30pm 31.7 28.6 3.7 17 14.8 W 9 17 5 9 1014.0 1012.7 0.0
17/04:00pm 31.5 28.8 3.5 17 14.7 WNW 7 13 4 7 1013.9 1012.6 0.0
17/03:30pm 31.2 28.8 4.1 18 14.4 S 6 9 3 5 1014.0 1012.7 0.0

Other Formats:

Comma delimited format used in spreadsheet applications
http://www.bom.gov.au/fwo/IDD60801/IDD60801.94328.axf

JavaScript Object Notation format (JSON) in row-major order
http://www.bom.gov.au/fwo/IDD60801/IDD60801.94328.json